Time;durP1;ratioP1;P1;durP2;ratioP2;P2;SDS_P1;SDS_P2;PMS_P1;PMS_P2;Temp;Humidity;BMP_temperature;BMP_pressure;BME280_temperature;BME280_humidity;BME280_pressure;Samples;Min_cycle;Max_cycle;Signal;HPM_P1;HPM_P2
2023/02/26 00:01:22;;;;;;;3.15;2.85;;;7.20;77.70;;;;;;4974298;28;20118;-62
2023/02/26 00:03:48;;;;;;;3.53;2.80;;;7.10;77.90;;;;;;4979522;28;20023;-61
2023/02/26 00:06:14;;;;;;;4.15;3.10;;;7.10;78.00;;;;;;4978953;28;20089;-61
2023/02/26 00:08:40;;;;;;;4.05;3.50;;;7.00;78.10;;;;;;4982310;28;20450;-60
2023/02/26 00:11:07;;;;;;;4.70;3.38;;;7.00;78.20;;;;;;4978468;28;20035;-60
2023/02/26 00:13:33;;;;;;;4.22;3.67;;;7.00;78.40;;;;;;4976994;28;20023;-60
2023/02/26 00:16:00;;;;;;;3.78;3.20;;;7.00;78.40;;;;;;4976474;28;20042;-63
2023/02/26 00:18:26;;;;;;;4.22;3.45;;;7.00;78.20;;;;;;4977236;28;20035;-63
2023/02/26 00:20:53;;;;;;;5.32;4.10;;;7.00;78.20;;;;;;4987006;28;20023;-63
2023/02/26 00:23:19;;;;;;;4.78;3.33;;;7.00;78.30;;;;;;4972354;28;20077;-63
2023/02/26 00:25:45;;;;;;;3.67;3.25;;;7.00;78.40;;;;;;4986474;28;20070;-63
2023/02/26 00:28:12;;;;;;;4.85;3.38;;;7.00;78.10;;;;;;4984469;28;20070;-63
2023/02/26 00:30:38;;;;;;;3.67;3.10;;;7.00;78.20;;;;;;4983893;28;20108;-63
2023/02/26 00:33:04;;;;;;;3.88;3.20;;;7.00;78.20;;;;;;4980686;28;20031;-62
2023/02/26 00:35:31;;;;;;;5.07;3.42;;;6.90;78.30;;;;;;4979705;28;20053;-63
2023/02/26 00:38:02;;;;;;;3.90;3.10;;;6.90;78.50;;;;;;4983364;28;20043;-62
2023/02/26 00:40:47;;;;;;;;;;;6.90;78.60;;;;;;4983818;28;20038;-63
2023/02/26 00:43:23;;;;;;;3.28;2.97;;;6.80;78.40;;;;;;4977090;28;19910;-63
2023/02/26 00:46:00;;;;;;;3.40;3.00;;;6.80;78.80;;;;;;4986007;28;20038;-63
2023/02/26 00:48:50;;;;;;;4.25;3.25;;;6.80;78.90;;;;;;4975844;28;20035;-62
2023/02/26 00:51:27;;;;;;;4.40;3.65;;;6.80;78.80;;;;;;4979190;28;20034;-62
2023/02/26 00:54:16;;;;;;;3.85;3.45;;;6.80;79.00;;;;;;4974868;28;20450;-63
2023/02/26 00:56:41;;;;;;;3.58;3.05;;;6.90;78.90;;;;;;4967881;28;20087;-62
2023/02/26 00:59:07;;;;;;;4.28;3.30;;;6.90;79.00;;;;;;4982718;28;20058;-62
2023/02/26 01:01:33;;;;;;;6.22;3.28;;;6.90;78.70;;;;;;4983589;28;20037;-63
2023/02/26 01:03:58;;;;;;;3.83;3.10;;;7.00;78.70;;;;;;4970189;28;20037;-63
2023/02/26 01:06:27;;;;;;;3.92;3.03;;;7.00;78.80;;;;;;4982185;28;20800;-62
2023/02/26 01:09:14;;;;;;;4.53;3.55;;;7.00;78.80;;;;;;4978989;28;20031;-62
2023/02/26 01:11:40;;;;;;;3.40;3.10;;;7.00;78.80;;;;;;4977586;28;20023;-62
2023/02/26 01:14:06;;;;;;;4.10;3.17;;;7.00;78.70;;;;;;4964332;28;20463;-63
2023/02/26 01:16:47;;;;;;;3.55;3.20;;;7.00;78.60;;;;;;4979363;28;20027;-63
2023/02/26 01:19:42;;;;;;;4.32;3.38;;;7.00;78.50;;;;;;4970904;28;20126;-63
2023/02/26 01:22:22;;;;;;;4.55;3.35;;;7.00;78.50;;;;;;4986494;28;20076;-63
2023/02/26 01:24:55;;;;;;;3.75;3.15;;;6.90;78.40;;;;;;4975519;28;20039;-63
2023/02/26 01:27:20;;;;;;;3.50;2.85;;;6.90;78.60;;;;;;4986627;28;20053;-64
2023/02/26 01:29:46;;;;;;;3.58;3.22;;;6.90;78.60;;;;;;4976023;28;20663;-63
2023/02/26 01:32:37;;;;;;;3.97;3.55;;;6.90;78.60;;;;;;4978474;28;20045;-63
2023/02/26 01:35:27;;;;;;;4.85;3.50;;;6.80;78.60;;;;;;4973547;28;20175;-63
2023/02/26 01:38:26;;;;;;;4.78;3.70;;;6.80;78.70;;;;;;4982281;28;20027;-60
2023/02/26 01:40:57;;;;;;;6.93;4.55;;;6.80;78.80;;;;;;4944906;28;20094;-60
2023/02/26 01:43:45;;;;;;;6.60;4.70;;;6.80;78.90;;;;;;4975656;28;20389;-60
2023/02/26 01:46:37;;;;;;;6.70;4.28;;;6.80;79.00;;;;;;4968624;28;20086;-60
2023/02/26 01:49:05;;;;;;;5.43;3.85;;;6.90;78.90;;;;;;4972157;28;20046;-60
2023/02/26 01:52:00;;;;;;;4.93;4.03;;;6.90;78.90;;;;;;4972753;28;20426;-61
2023/02/26 01:54:32;;;;;;;4.57;3.58;;;6.90;78.50;;;;;;4970276;28;20039;-60
2023/02/26 01:57:13;;;;;;;4.35;3.80;;;7.00;78.50;;;;;;4974569;28;20097;-60
2023/02/26 01:59:45;;;;;;;4.03;3.30;;;7.00;78.30;;;;;;4982550;28;20027;-60
2023/02/26 02:02:11;;;;;;;;;;;7.00;78.80;;;;;;4978604;28;20070;-61
2023/02/26 02:04:38;;;;;;;4.60;3.30;;;6.90;78.00;;;;;;4967004;28;19993;-60
2023/02/26 02:07:05;;;;;;;4.40;3.65;;;6.90;79.10;;;;;;4980251;28;20039;-59
2023/02/26 02:09:31;;;;;;;4.22;3.38;;;6.80;78.50;;;;;;4981937;28;20476;-60
2023/02/26 02:12:15;;;;;;;4.38;3.30;;;6.80;78.70;;;;;;4980095;28;20030;-59
2023/02/26 02:15:09;;;;;;;3.67;3.30;;;6.70;78.80;;;;;;4975334;28;20161;-60
2023/02/26 02:18:03;;;;;;;3.03;2.72;;;6.70;78.80;;;;;;4980577;28;20026;-60
2023/02/26 02:20:59;;;;;;;4.80;3.35;;;6.60;79.00;;;;;;4972969;28;20437;-61
2023/02/26 02:23:46;;;;;;;3.53;3.22;;;6.60;79.10;;;;;;4967541;28;20116;-60
2023/02/26 02:26:39;;;;;;;3.75;3.15;;;6.60;79.10;;;;;;4971041;28;20030;-60
2023/02/26 02:29:48;;;;;;;3.97;3.25;;;6.60;79.90;;;;;;4978623;28;20050;-60
2023/02/26 02:32:24;;;;;;;4.15;3.45;;;6.60;79.20;;;;;;4943114;28;20036;-60
2023/02/26 02:35:11;;;;;;;3.10;2.85;;;6.50;79.30;;;;;;4953430;28;20485;-61
2023/02/26 02:37:43;;;;;;;4.28;3.40;;;6.50;79.30;;;;;;4968711;28;20074;-60
2023/02/26 02:40:19;;;;;;;3.70;3.40;;;6.50;79.30;;;;;;4983460;28;20030;-61
2023/02/26 02:43:02;;;;;;;4.88;3.70;;;6.50;79.20;;;;;;4983757;28;20120;-60
2023/02/26 02:45:34;;;;;;;4.57;3.70;;;6.50;79.10;;;;;;4974210;28;20381;-60
2023/02/26 02:48:21;;;;;;;4.75;3.42;;;6.60;79.20;;;;;;4975713;28;20030;-62
2023/02/26 02:50:56;;;;;;;4.65;3.83;;;6.60;79.00;;;;;;4976891;28;20079;-60
2023/02/26 02:53:25;;;;;;;6.07;4.65;;;6.60;78.80;;;;;;4980612;28;20472;-60
2023/02/26 02:56:07;;;;;;;4.97;3.53;;;6.70;78.80;;;;;;4970772;28;20062;-61
2023/02/26 02:58:38;;;;;;;;;;;6.70;78.80;;;;;;4980845;28;20446;-60
2023/02/26 03:01:08;;;;;;;3.70;3.35;;;6.60;78.40;;;;;;4972857;28;19906;-60
2023/02/26 03:03:53;;;;;;;5.25;3.88;;;6.60;78.60;;;;;;4975782;28;20488;-61
2023/02/26 03:06:18;;;;;;;3.90;3.50;;;6.60;78.50;;;;;;4975648;28;20095;-64
2023/02/26 03:08:47;;;;;;;3.80;3.40;;;6.60;78.70;;;;;;4966149;28;20058;-60
2023/02/26 03:11:12;;;;;;;4.25;3.22;;;6.60;78.60;;;;;;4973342;28;20033;-61
2023/02/26 03:13:39;;;;;;;4.32;3.10;;;6.60;78.70;;;;;;4978256;28;20706;-60
2023/02/26 03:16:42;;;;;;;4.28;3.50;;;6.60;78.70;;;;;;4979533;28;20038;-61
2023/02/26 03:19:22;;;;;;;3.35;2.90;;;6.60;78.50;;;;;;4976668;28;20030;-60
2023/02/26 03:21:48;;;;;;;3.50;3.20;;;6.50;78.60;;;;;;4977696;28;20105;-60
2023/02/26 03:24:27;;;;;;;5.85;3.67;;;6.50;78.60;;;;;;4975774;28;20035;-60
2023/02/26 03:27:03;;;;;;;5.97;4.13;;;6.50;78.50;;;;;;4973550;28;20137;-61
2023/02/26 03:29:54;;;;;;;5.45;4.15;;;6.50;78.60;;;;;;4972481;28;20029;-60
2023/02/26 03:32:32;;;;;;;6.13;4.50;;;6.50;78.80;;;;;;4981367;28;20030;-60
2023/02/26 03:35:08;;;;;;;4.88;4.00;;;6.60;78.40;;;;;;4977064;28;20066;-60
2023/02/26 03:37:47;;;;;;;4.68;3.65;;;6.60;78.00;;;;;;4974523;28;20078;-60
2023/02/26 03:40:22;;;;;;;4.43;3.80;;;6.60;77.90;;;;;;4977443;28;20377;-60
2023/02/26 03:42:54;;;;;;;4.68;3.72;;;6.70;77.80;;;;;;4966654;28;20027;-60
2023/02/26 03:45:23;;;;;;;;;;;6.70;77.60;;;;;;4975057;28;20039;-60
2023/02/26 03:47:52;;;;;;;4.80;3.65;;;6.60;77.40;;;;;;4974726;28;19913;-60
2023/02/26 03:50:27;;;;;;;4.88;3.70;;;6.70;77.60;;;;;;4970405;28;20038;-60
2023/02/26 03:52:53;;;;;;;4.97;4.47;;;6.70;77.50;;;;;;4983059;28;20073;-60
2023/02/26 03:55:37;;;;;;;4.80;4.00;;;6.70;77.40;;;;;;4969909;28;20034;-60
2023/02/26 03:58:03;;;;;;;5.07;3.72;;;6.70;77.50;;;;;;4972689;28;20026;-61
2023/02/26 04:00:31;;;;;;;4.53;3.80;;;6.70;77.40;;;;;;4967589;28;20363;-60
2023/02/26 04:03:10;;;;;;;6.18;4.05;;;6.70;77.40;;;;;;4960252;28;20094;-61
2023/02/26 04:05:39;;;;;;;5.05;4.00;;;6.70;77.20;;;;;;4965483;28;20417;-60
2023/02/26 04:08:05;;;;;;;5.40;4.05;;;6.70;77.20;;;;;;4976430;28;20034;-60
2023/02/26 04:10:54;;;;;;;6.15;4.55;;;6.70;77.00;;;;;;4977208;28;20521;-60
2023/02/26 04:13:20;;;;;;;4.82;4.10;;;6.70;76.90;;;;;;4972044;28;20397;-61
2023/02/26 04:15:45;;;;;;;5.80;4.57;;;6.70;77.00;;;;;;4979983;28;20038;-61
2023/02/26 04:18:11;;;;;;;7.30;4.65;;;6.80;77.00;;;;;;4979432;28;20121;-62
2023/02/26 04:20:36;;;;;;;4.47;3.92;;;6.80;76.80;;;;;;4979118;28;20038;-60
2023/02/26 04:23:02;;;;;;;5.63;3.97;;;6.90;76.70;;;;;;4983527;28;20419;-61
2023/02/26 04:25:28;;;;;;;4.85;3.55;;;6.90;76.40;;;;;;4984759;28;20106;-60
2023/02/26 04:27:54;;;;;;;5.05;4.20;;;6.90;76.30;;;;;;4983414;28;20037;-60
2023/02/26 04:30:20;;;;;;;6.28;4.80;;;6.90;76.10;;;;;;4975083;28;20541;-61
2023/02/26 04:32:45;;;;;;;5.78;4.90;;;6.90;76.10;;;;;;4978387;28;20035;-61
2023/02/26 04:35:11;;;;;;;7.07;5.43;;;6.90;76.10;;;;;;4980603;28;20038;-61
2023/02/26 04:37:36;;;;;;;6.20;4.57;;;6.90;76.10;;;;;;4975871;28;20074;-59
2023/02/26 04:40:03;;;;;;;7.22;5.18;;;6.90;75.90;;;;;;4978648;28;20030;-60
2023/02/26 04:42:29;;;;;;;8.05;5.80;;;6.90;75.90;;;;;;4979178;28;20055;-60
2023/02/26 04:44:55;;;;;;;9.52;6.68;;;6.90;75.70;;;;;;4971636;28;20074;-60
2023/02/26 04:47:20;;;;;;;12.68;8.50;;;7.00;75.90;;;;;;4972007;28;20027;-60
2023/02/26 04:49:46;;;;;;;11.45;8.85;;;7.00;75.70;;;;;;4977505;28;20037;-61
2023/02/26 04:52:12;;;;;;;10.75;8.73;;;7.00;75.60;;;;;;4983741;28;20019;-60
2023/02/26 04:54:37;;;;;;;12.50;8.70;;;7.00;75.40;;;;;;4968372;28;20032;-61
2023/02/26 04:57:03;;;;;;;12.68;8.77;;;7.00;75.40;;;;;;4977606;28;20382;-61
2023/02/26 04:59:29;;;;;;;9.65;7.53;;;7.00;75.40;;;;;;4983207;28;20362;-60
2023/02/26 05:01:54;;;;;;;11.10;8.00;;;7.00;75.40;;;;;;4968950;28;20027;-60
2023/02/26 05:04:20;;;;;;;10.52;8.18;;;7.00;75.40;;;;;;4975682;28;20093;-61
2023/02/26 05:06:45;;;;;;;8.38;6.78;;;7.00;75.50;;;;;;4987436;28;20651;-61
2023/02/26 05:09:11;;;;;;;9.68;7.38;;;6.90;75.50;;;;;;4992284;28;20030;-59
2023/02/26 05:11:36;;;;;;;10.48;6.85;;;6.90;75.50;;;;;;4979600;28;20126;-61
2023/02/26 05:14:02;;;;;;;8.07;6.53;;;6.90;75.70;;;;;;4982807;28;20353;-61
2023/02/26 05:16:28;;;;;;;8.70;6.68;;;6.90;75.70;;;;;;4973197;28;20039;-61
2023/02/26 05:18:53;;;;;;;9.05;6.90;;;6.80;75.70;;;;;;4970988;28;20029;-61
2023/02/26 05:21:20;;;;;;;7.63;6.78;;;6.80;75.80;;;;;;4976197;28;20023;-61
2023/02/26 05:23:46;;;;;;;10.35;7.25;;;6.80;75.90;;;;;;4975461;28;20047;-60
2023/02/26 05:26:12;;;;;;;8.35;7.07;;;6.90;76.00;;;;;;4976283;28;20031;-61
2023/02/26 05:28:37;;;;;;;8.88;6.45;;;6.90;75.90;;;;;;4962452;28;20376;-60
2023/02/26 05:31:03;;;;;;;8.88;6.55;;;7.00;75.70;;;;;;4966044;28;20035;-61
2023/02/26 05:33:29;;;;;;;10.30;7.55;;;7.00;75.40;;;;;;4963987;28;20047;-61
2023/02/26 05:35:56;;;;;;;7.45;6.53;;;7.00;75.20;;;;;;4975335;28;20037;-61
2023/02/26 05:38:22;;;;;;;10.85;7.55;;;7.00;75.10;;;;;;4980894;28;20030;-61
2023/02/26 05:40:48;;;;;;;11.45;8.63;;;7.10;75.10;;;;;;4985895;28;20114;-60
2023/02/26 05:43:13;;;;;;;12.00;8.57;;;7.00;74.90;;;;;;4983678;28;20560;-61
2023/02/26 05:45:39;;;;;;;13.20;9.20;;;7.00;74.90;;;;;;4968438;28;20062;-60
2023/02/26 05:48:05;;;;;;;12.30;8.82;;;7.10;74.90;;;;;;4982680;28;20078;-61
2023/02/26 05:50:30;;;;;;;16.08;10.48;;;7.10;74.90;;;;;;4976987;28;20023;-60
2023/02/26 05:52:56;;;;;;;18.35;12.25;;;7.10;75.10;;;;;;4977765;28;20082;-61
2023/02/26 05:55:22;;;;;;;22.55;13.35;;;7.10;75.10;;;;;;4973640;28;20117;-61
2023/02/26 05:57:48;;;;;;;23.77;14.55;;;7.10;75.00;;;;;;4979715;28;20046;-61
2023/02/26 06:00:14;;;;;;;25.45;14.70;;;7.10;75.50;;;;;;4975509;28;20371;-61
2023/02/26 06:02:40;;;;;;;16.73;11.13;;;7.20;74.80;;;;;;4974188;28;20033;-61
2023/02/26 06:05:07;;;;;;;23.17;13.15;;;7.20;74.70;;;;;;4975939;28;20038;-61
2023/02/26 06:07:33;;;;;;;16.50;10.98;;;7.10;74.80;;;;;;4974346;28;20058;-61
2023/02/26 06:09:59;;;;;;;16.20;11.27;;;7.20;75.00;;;;;;4976908;28;20030;-61
2023/02/26 06:12:24;;;;;;;15.50;10.13;;;7.20;74.80;;;;;;4978741;28;20033;-63
2023/02/26 06:14:50;;;;;;;11.93;8.80;;;7.20;74.70;;;;;;4979422;28;20037;-63
2023/02/26 06:17:16;;;;;;;11.65;7.55;;;7.20;74.80;;;;;;4976462;28;20048;-63
2023/02/26 06:19:41;;;;;;;12.88;7.97;;;7.20;74.80;;;;;;4972219;28;20026;-63
2023/02/26 06:22:07;;;;;;;9.60;7.18;;;7.10;74.80;;;;;;4984889;28;20104;-63
2023/02/26 06:24:33;;;;;;;10.80;7.38;;;7.10;75.00;;;;;;4981569;28;20026;-63
2023/02/26 06:26:59;;;;;;;9.52;6.50;;;7.00;75.00;;;;;;4980939;28;20035;-60
2023/02/26 06:29:25;;;;;;;8.20;6.40;;;7.10;75.00;;;;;;4978327;28;20042;-60
2023/02/26 06:31:50;;;;;;;7.38;5.88;;;7.00;75.00;;;;;;4979312;28;20037;-60
2023/02/26 06:34:16;;;;;;;7.60;5.70;;;7.10;75.10;;;;;;4985767;28;20035;-60
2023/02/26 06:36:42;;;;;;;7.18;5.80;;;7.10;75.20;;;;;;4964599;28;20097;-59
2023/02/26 06:39:08;;;;;;;7.43;6.05;;;7.10;75.10;;;;;;4971984;28;20347;-59
2023/02/26 06:41:33;;;;;;;7.28;5.50;;;7.10;75.00;;;;;;4973760;28;20039;-60
2023/02/26 06:43:59;;;;;;;6.68;5.40;;;7.20;75.00;;;;;;4981725;28;20035;-60
2023/02/26 06:46:25;;;;;;;6.97;5.00;;;7.20;75.00;;;;;;4981052;28;20085;-61
2023/02/26 06:48:51;;;;;;;7.47;5.65;;;7.20;74.80;;;;;;4979639;28;20066;-60
2023/02/26 06:51:17;;;;;;;7.10;5.55;;;7.20;74.80;;;;;;4982201;28;20031;-60
2023/02/26 06:53:42;;;;;;;7.85;5.65;;;7.20;74.70;;;;;;4976394;28;20030;-61
2023/02/26 06:56:08;;;;;;;8.35;6.30;;;7.30;74.70;;;;;;4972516;28;20034;-59
2023/02/26 06:58:34;;;;;;;9.38;6.57;;;7.30;74.80;;;;;;4980122;28;20457;-60
2023/02/26 07:00:59;;;;;;;8.23;6.50;;;7.40;74.80;;;;;;4965353;28;20175;-59
2023/02/26 07:03:25;;;;;;;8.80;6.63;;;7.40;74.60;;;;;;4959299;28;20046;-60
2023/02/26 07:05:51;;;;;;;9.35;6.88;;;7.50;74.40;;;;;;4957787;28;20038;-60
2023/02/26 07:08:17;;;;;;;6.65;5.53;;;7.50;74.00;;;;;;4970791;28;20097;-60
2023/02/26 07:10:45;;;;;;;7.28;5.90;;;7.60;74.00;;;;;;4980290;28;20034;-60
2023/02/26 07:13:10;;;;;;;6.50;5.28;;;7.60;73.70;;;;;;4975265;28;20035;-60
2023/02/26 07:15:36;;;;;;;8.68;5.88;;;7.50;73.70;;;;;;4965286;28;20069;-59
2023/02/26 07:18:01;;;;;;;6.90;5.45;;;7.50;73.90;;;;;;4972453;28;20027;-59
2023/02/26 07:20:28;;;;;;;6.43;5.50;;;7.50;73.80;;;;;;4972157;28;20449;-60
2023/02/26 07:22:54;;;;;;;6.82;5.07;;;7.50;73.90;;;;;;4973254;28;20043;-60
2023/02/26 07:25:19;;;;;;;6.90;5.22;;;7.50;74.10;;;;;;4971614;28;20477;-60
2023/02/26 07:27:46;;;;;;;7.63;5.57;;;7.50;74.00;;;;;;4975334;28;20038;-60
2023/02/26 07:30:12;;;;;;;6.30;5.00;;;7.60;73.90;;;;;;4972578;28;20019;-61
2023/02/26 07:32:38;;;;;;;7.43;5.45;;;7.50;73.70;;;;;;4972337;28;20423;-59
2023/02/26 07:35:04;;;;;;;7.82;6.10;;;7.60;73.60;;;;;;4980123;28;20030;-60
2023/02/26 07:37:29;;;;;;;7.47;5.57;;;7.60;73.80;;;;;;4968425;28;20111;-64
2023/02/26 07:39:55;;;;;;;5.95;4.60;;;7.60;73.60;;;;;;4983962;28;20105;-63
2023/02/26 07:42:21;;;;;;;7.20;4.95;;;7.60;73.40;;;;;;4981631;28;20374;-63
2023/02/26 07:44:46;;;;;;;5.05;4.10;;;7.70;73.30;;;;;;4973252;28;20124;-63
2023/02/26 07:47:12;;;;;;;6.43;4.47;;;7.70;73.10;;;;;;4979792;28;20138;-63
2023/02/26 07:49:38;;;;;;;6.43;5.07;;;7.70;73.00;;;;;;4973107;28;20027;-63
2023/02/26 07:52:06;;;;;;;5.15;4.40;;;7.70;73.20;;;;;;4968311;28;20518;-62
2023/02/26 07:54:32;;;;;;;5.53;4.03;;;7.70;73.20;;;;;;4983661;28;20153;-62
2023/02/26 07:56:57;;;;;;;5.28;4.65;;;7.80;72.90;;;;;;4983192;28;20113;-62
2023/02/26 07:59:23;;;;;;;5.30;4.30;;;7.80;72.90;;;;;;4984064;28;20034;-62
2023/02/26 08:01:49;;;;;;;5.22;4.30;;;7.80;72.90;;;;;;4972321;28;20042;-62
2023/02/26 08:04:14;;;;;;;5.35;4.18;;;7.80;72.90;;;;;;4980707;28;20050;-63
2023/02/26 08:06:40;;;;;;;5.90;4.07;;;7.80;72.80;;;;;;4960420;28;20505;-62
2023/02/26 08:09:05;;;;;;;5.63;4.25;;;7.80;72.80;;;;;;4970672;28;20174;-63
2023/02/26 08:11:34;;;;;;;6.22;5.03;;;7.80;72.90;;;;;;4987841;28;20030;-63
2023/02/26 08:14:00;;;;;;;5.00;3.83;;;7.80;73.20;;;;;;4987005;28;20030;-63
2023/02/26 08:16:25;;;;;;;7.10;4.32;;;7.90;72.90;;;;;;4971298;28;20050;-63
2023/02/26 08:18:51;;;;;;;5.47;4.28;;;7.90;72.70;;;;;;4965567;28;20019;-63
2023/02/26 08:21:16;;;;;;;6.28;4.97;;;7.90;72.70;;;;;;4974784;28;20026;-63
2023/02/26 08:23:42;;;;;;;5.95;4.32;;;7.90;72.70;;;;;;4974034;28;20051;-63
2023/02/26 08:26:12;;;;;;;6.25;5.18;;;7.90;72.70;;;;;;4969825;28;20041;-62
2023/02/26 08:28:38;;;;;;;7.03;5.57;;;7.90;72.60;;;;;;4977156;28;20034;-63
2023/02/26 08:31:04;;;;;;;6.78;4.82;;;8.00;72.70;;;;;;4970822;28;20053;-62
2023/02/26 08:33:30;;;;;;;6.80;4.95;;;8.00;72.80;;;;;;4969243;28;20462;-62
2023/02/26 08:35:57;;;;;;;6.93;4.75;;;8.10;72.50;;;;;;4978687;28;20047;-63
2023/02/26 08:38:24;;;;;;;7.00;5.13;;;8.10;72.20;;;;;;4975293;28;20094;-62
2023/02/26 08:40:51;;;;;;;6.10;4.63;;;8.10;72.30;;;;;;4976902;28;20572;-63
2023/02/26 08:43:17;;;;;;;7.28;4.80;;;8.20;72.10;;;;;;4979169;28;20034;-63
2023/02/26 08:45:44;;;;;;;6.70;5.07;;;8.20;72.20;;;;;;4976729;28;20062;-63
2023/02/26 08:48:10;;;;;;;7.38;5.07;;;8.30;72.40;;;;;;4978765;28;20122;-63
2023/02/26 08:50:35;;;;;;;6.60;5.00;;;8.30;72.10;;;;;;4974967;28;20109;-63
2023/02/26 08:53:01;;;;;;;6.75;5.35;;;8.40;71.90;;;;;;4984466;28;20089;-63
2023/02/26 08:55:27;;;;;;;6.75;5.03;;;8.40;71.70;;;;;;4972784;28;20066;-63
2023/02/26 08:57:53;;;;;;;5.50;4.50;;;8.40;71.80;;;;;;4971840;28;20117;-62
2023/02/26 09:00:19;;;;;;;6.95;4.70;;;8.50;71.60;;;;;;4973761;28;20154;-62
2023/02/26 09:02:45;;;;;;;6.55;4.63;;;8.50;71.70;;;;;;4991837;28;20030;-62
2023/02/26 09:05:11;;;;;;;6.85;4.93;;;8.50;71.50;;;;;;4980017;28;20114;-62
2023/02/26 09:07:37;;;;;;;8.18;5.63;;;8.50;71.50;;;;;;4976143;28;20047;-63
2023/02/26 09:10:04;;;;;;;6.57;4.90;;;8.50;71.60;;;;;;4977306;28;20035;-62
2023/02/26 09:12:30;;;;;;;6.38;4.97;;;8.60;71.30;;;;;;4976037;28;20130;-63
2023/02/26 09:14:57;;;;;;;7.13;4.80;;;8.60;71.20;;;;;;4974591;28;20125;-63
2023/02/26 09:17:24;;;;;;;7.53;5.22;;;8.70;71.10;;;;;;4974521;28;20030;-63
2023/02/26 09:19:49;;;;;;;5.25;4.60;;;8.70;71.10;;;;;;4975395;28;20539;-62
2023/02/26 09:22:15;;;;;;;5.68;5.03;;;8.80;71.00;;;;;;4976929;28;20164;-62
2023/02/26 09:24:40;;;;;;;6.38;4.90;;;8.80;70.70;;;;;;4976630;28;20034;-62
2023/02/26 09:27:06;;;;;;;6.47;4.97;;;8.80;70.60;;;;;;4973094;28;20093;-63
2023/02/26 09:29:32;;;;;;;5.47;4.57;;;8.80;70.50;;;;;;4979949;28;20073;-62
2023/02/26 09:31:58;;;;;;;8.38;4.55;;;8.90;70.60;;;;;;4975199;28;20069;-62
2023/02/26 09:34:23;;;;;;;6.80;5.13;;;8.90;70.30;;;;;;4973930;28;20458;-62
2023/02/26 09:36:49;;;;;;;6.38;4.82;;;8.90;70.40;;;;;;4973060;28;20031;-61
2023/02/26 09:39:15;;;;;;;7.32;5.30;;;8.90;70.50;;;;;;4974338;28;20027;-62
2023/02/26 09:41:46;;;;;;;5.95;4.43;;;8.90;70.40;;;;;;4975490;28;20034;-64
2023/02/26 09:44:19;;;;;;;6.03;4.85;;;9.00;70.40;;;;;;4974641;28;20117;-62
2023/02/26 09:46:51;;;;;;;5.65;4.68;;;9.00;70.30;;;;;;4976524;28;20046;-63
2023/02/26 09:49:45;;;;;;;5.45;4.10;;;9.00;70.20;;;;;;4978657;28;20034;-63
2023/02/26 09:52:17;;;;;;;4.80;4.18;;;9.00;69.90;;;;;;4972535;28;20033;-62
2023/02/26 09:54:50;;;;;;;6.88;4.60;;;9.00;69.80;;;;;;4978294;28;20397;-63
2023/02/26 09:57:35;;;;;;;6.10;4.85;;;9.00;70.00;;;;;;4974845;28;20129;-62
2023/02/26 10:00:06;;;;;;;5.75;4.43;;;9.00;70.60;;;;;;4977597;28;20065;-62
2023/02/26 10:02:51;;;;;;;;;;;9.00;69.80;;;;;;4975191;28;20036;-63
2023/02/26 10:05:17;;;;;;;5.93;4.32;;;9.00;69.40;;;;;;4974144;28;19957;-63
2023/02/26 10:07:55;;;;;;;6.35;4.75;;;9.10;69.70;;;;;;4973711;28;20075;-62
2023/02/26 10:10:29;;;;;;;6.57;4.82;;;9.10;69.70;;;;;;4967936;28;20038;-62
2023/02/26 10:12:56;;;;;;;5.30;4.53;;;9.10;69.60;;;;;;4974205;28;20410;-61
2023/02/26 10:15:39;;;;;;;6.68;5.20;;;9.20;69.50;;;;;;4974448;28;20070;-61
2023/02/26 10:18:25;;;;;;;5.78;4.22;;;9.20;69.40;;;;;;4973053;28;20023;-62
2023/02/26 10:20:55;;;;;;;7.10;4.85;;;9.20;69.20;;;;;;4974273;28;20118;-62
2023/02/26 10:23:40;;;;;;;6.95;5.18;;;9.20;68.90;;;;;;4973470;28;20043;-61
2023/02/26 10:26:25;;;;;;;5.20;3.92;;;9.20;69.00;;;;;;4971798;28;20174;-62
2023/02/26 10:29:19;;;;;;;5.25;4.30;;;9.20;68.90;;;;;;4977421;28;20448;-62
2023/02/26 10:32:24;;;;;;;5.35;4.38;;;9.20;68.90;;;;;;4960079;28;20478;-62
2023/02/26 10:34:55;;;;;;;5.22;4.22;;;9.10;68.90;;;;;;4960895;28;20035;-62
2023/02/26 10:37:48;;;;;;;6.38;4.50;;;9.00;69.00;;;;;;4974497;28;20458;-61
2023/02/26 10:40:29;;;;;;;7.15;4.50;;;8.90;68.90;;;;;;4972420;28;20038;-61
2023/02/26 10:42:58;;;;;;;5.90;4.57;;;8.90;69.30;;;;;;4968393;28;20031;-62
2023/02/26 10:45:34;;;;;;;5.88;4.15;;;8.80;69.10;;;;;;4972656;28;20054;-62
2023/02/26 10:48:21;;;;;;;6.80;4.80;;;8.80;69.20;;;;;;4977633;28;20146;-62
2023/02/26 10:50:52;;;;;;;5.88;4.65;;;8.80;69.30;;;;;;4961190;28;20139;-62
2023/02/26 10:53:20;;;;;;;6.45;4.68;;;8.70;69.60;;;;;;4972626;28;20374;-62
2023/02/26 10:56:00;;;;;;;6.57;4.85;;;8.70;69.60;;;;;;4967520;28;20670;-62
2023/02/26 10:58:26;;;;;;;5.63;4.65;;;8.70;69.50;;;;;;4972266;28;21528;-62
2023/02/26 11:00:54;;;;;;;5.00;4.18;;;8.80;69.50;;;;;;4976174;28;20026;-62
2023/02/26 11:03:39;;;;;;;8.10;4.55;;;8.80;69.50;;;;;;4971775;28;20035;-62
2023/02/26 11:06:06;;;;;;;5.30;4.18;;;8.70;69.40;;;;;;4971834;28;20126;-62
2023/02/26 11:08:41;;;;;;;6.03;4.68;;;8.80;69.60;;;;;;4972051;28;20049;-62
2023/02/26 11:11:07;;;;;;;4.90;4.22;;;8.80;69.50;;;;;;4972097;28;20212;-62
2023/02/26 11:13:36;;;;;;;5.25;4.28;;;8.80;69.40;;;;;;4969425;28;20077;-62
2023/02/26 11:16:14;;;;;;;6.05;4.82;;;8.80;69.40;;;;;;4966069;28;20039;-62
2023/02/26 11:18:47;;;;;;;6.45;4.70;;;8.80;69.50;;;;;;4970755;28;20490;-62
2023/02/26 11:21:21;;;;;;;4.78;4.20;;;8.80;69.70;;;;;;4971561;28;20038;-62
2023/02/26 11:23:48;;;;;;;6.72;4.57;;;8.90;69.70;;;;;;4971584;28;20042;-62
2023/02/26 11:26:17;;;;;;;6.22;5.13;;;8.90;69.50;;;;;;4971906;28;20113;-61
2023/02/26 11:28:52;;;;;;;5.37;4.17;;;9.00;69.50;;;;;;4975225;28;20046;-62
2023/02/26 11:31:19;;;;;;;5.47;4.28;;;9.00;69.40;;;;;;4973224;28;20117;-62
2023/02/26 11:33:52;;;;;;;5.55;4.13;;;9.00;69.20;;;;;;4972232;28;20031;-62
2023/02/26 11:36:19;;;;;;;5.13;3.80;;;9.00;68.90;;;;;;4960713;28;20034;-61
2023/02/26 11:38:51;;;;;;;5.88;4.15;;;9.00;68.80;;;;;;4981404;28;20487;-62
2023/02/26 11:41:17;;;;;;;5.15;3.80;;;9.00;68.80;;;;;;4964763;28;20031;-62
2023/02/26 11:43:48;;;;;;;6.03;4.28;;;8.90;68.70;;;;;;4966558;28;20081;-62
2023/02/26 11:46:14;;;;;;;5.43;4.05;;;8.90;68.60;;;;;;4972321;28;20035;-63
2023/02/26 11:48:47;;;;;;;4.85;3.88;;;8.90;68.60;;;;;;4970502;28;20043;-62
2023/02/26 11:51:24;;;;;;;4.45;3.70;;;8.90;68.50;;;;;;4963740;28;20371;-62
2023/02/26 11:53:55;;;;;;;5.18;4.32;;;8.90;68.60;;;;;;4971840;28;20471;-62
2023/02/26 11:56:31;;;;;;;6.10;4.85;;;8.90;68.70;;;;;;4964749;28;20039;-61
2023/02/26 11:59:04;;;;;;;6.47;5.10;;;8.90;68.90;;;;;;4972414;28;20034;-62
2023/02/26 12:01:30;;;;;;;6.47;4.65;;;8.90;68.80;;;;;;4972192;28;20042;-62
2023/02/26 12:03:59;;;;;;;5.10;3.80;;;8.90;68.60;;;;;;4971763;28;20081;-62
2023/02/26 12:06:25;;;;;;;5.30;4.32;;;9.00;68.50;;;;;;4971029;28;20034;-62
2023/02/26 12:08:52;;;;;;;5.93;4.20;;;9.00;68.20;;;;;;4962012;28;20436;-62
2023/02/26 12:11:34;;;;;;;5.70;5.03;;;9.00;68.30;;;;;;4971804;28;20512;-62
2023/02/26 12:14:12;;;;;;;5.55;4.45;;;9.00;68.30;;;;;;4971468;28;20042;-62
2023/02/26 12:16:57;;;;;;;5.30;4.53;;;9.10;68.30;;;;;;4975813;28;20437;-62
2023/02/26 12:19:31;;;;;;;5.78;4.45;;;9.10;68.30;;;;;;4972231;28;20561;-62
2023/02/26 12:22:02;;;;;;;7.95;5.00;;;9.00;68.10;;;;;;4972717;28;20049;-61
2023/02/26 12:24:49;;;;;;;5.60;4.25;;;9.00;68.20;;;;;;4971986;28;20077;-61
2023/02/26 12:27:25;;;;;;;7.38;5.28;;;9.00;67.90;;;;;;4972821;28;20046;-60
2023/02/26 12:30:20;;;;;;;5.38;4.13;;;9.00;68.20;;;;;;4975467;28;20374;-60
2023/02/26 12:33:07;;;;;;;5.07;4.13;;;9.00;68.10;;;;;;4957062;28;20047;-58
2023/02/26 12:35:37;;;;;;;7.13;4.70;;;8.90;68.00;;;;;;4970906;28;20073;-49
2023/02/26 12:38:07;;;;;;;7.38;4.93;;;8.90;68.20;;;;;;4970405;28;20385;-49
2023/02/26 12:41:01;;;;;;;6.68;4.85;;;9.00;68.40;;;;;;4971801;28;20026;-50
2023/02/26 12:43:43;;;;;;;6.50;5.22;;;9.00;68.10;;;;;;4972429;28;20023;-53
2023/02/26 12:46:17;;;;;;;5.57;4.38;;;9.00;68.20;;;;;;4975441;28;20034;-51
2023/02/26 12:49:19;;;;;;;7.05;5.50;;;9.00;68.10;;;;;;4971183;28;20059;-50
2023/02/26 12:51:47;;;;;;;6.50;4.80;;;9.00;67.90;;;;;;4972250;28;20034;-47
2023/02/26 12:54:27;;;;;;;6.75;5.25;;;9.00;68.00;;;;;;4967280;28;20086;-46
2023/02/26 12:56:58;;;;;;;6.15;4.95;;;9.00;68.00;;;;;;4969933;28;20039;-47
2023/02/26 12:59:23;;;;;;;;;;;9.10;68.20;;;;;;4972868;28;20038;-47
2023/02/26 13:02:27;;;;;;;6.18;4.70;;;9.10;67.80;;;;;;4971804;28;19918;-47
2023/02/26 13:04:55;;;;;;;6.05;4.90;;;9.10;68.00;;;;;;4970847;28;20034;-48
2023/02/26 13:07:33;;;;;;;6.22;4.82;;;9.00;68.00;;;;;;4971729;28;20034;-48
2023/02/26 13:10:16;;;;;;;6.13;4.57;;;9.00;68.10;;;;;;4972080;28;20070;-47
2023/02/26 13:13:06;;;;;;;6.80;5.00;;;9.00;68.20;;;;;;4975517;28;20462;-48
2023/02/26 13:15:50;;;;;;;6.50;4.78;;;9.00;68.20;;;;;;4967160;28;20469;-52
2023/02/26 13:18:26;;;;;;;5.10;4.60;;;9.00;68.10;;;;;;4975611;28;20515;-50
2023/02/26 13:21:00;;;;;;;6.55;4.60;;;9.00;68.30;;;;;;4974846;28;20035;-48